Creede, CO

11:09 PM MST on February 27, 2017 (GMT -0700)
Wolf Creek Pass

Weather History for KCPW - April, 2014

Change the Weather History Date:

Monday, April 28, 2014

  Actual Average (KE33) Record (KE33)
Temperature  
Mean Temperature 16 °F -  
Max Temperature 24 °F 55 °F 66 °F (2007)
Min Temperature 8 °F 34 °F 26 °F (2011)
Degree Days  
Heating Degree Days 49    
Moisture  
Dew Point 10 °F    
Average Humidity 80    
Maximum Humidity 100    
Minimum Humidity 43    
Precipitation  
Precipitation 0.01 in - - ()
Sea Level Pressure  
Sea Level Pressure 29.91 in    
Wind  
Wind Speed 15 mph (West)    
Max Wind Speed 25 mph    
Max Gust Speed 36 mph    
Visibility 8 miles    
Events Snow    
Averages and records for this station are not official NWS values.
T = Trace of Precipitation, MM = Missing Value Source: NWS Daily Summary

Daily Weather History Graph

Daily Weather History Graph

Search for Another Location

Airport or City:

Trip Planner

Search our weather history database for the weather conditions in past years. The results will help you decide how hot, cold, wet, or windy it might be!

Date:

Astronomy

Apr. 28, 2014 Rise Set
Actual Time 6:15 AM MDT 7:54 PM MDT
Civil Twilight 5:47 AM MDT 8:22 PM MDT
Nautical Twilight 5:14 AM MDT 8:56 PM MDT
Astronomical Twilight 4:38 AM MDT 9:31 PM MDT
Moon 5:54 AM MDT 7:36 PM MDT
Length of Visible Light 14h 34m
Length of Day
13h 38m
Waning Crescent, 0% of the Moon is Illuminated
Apr 28
Waning Crescent
Apr 29
New
May 6
First Quarter
May 14
Full
May 21
Last Quarter

Hourly Weather History & Observations

Time (MDT) Temp. Windchill Dew Point Humidity Pressure Visibility Wind Dir Wind Speed Gust Speed Precip Events Conditions
12:17 AM 12.2 °F -4.3 °F 10.4 °F 92% 29.85 in 10.0 mi SW 16.1 mph 23.0 mph N/A   Clear
12:34 AM 12.2 °F -5.3 °F 10.4 °F 92% 29.84 in 10.0 mi SW 18.4 mph 21.9 mph N/A   Scattered Clouds
12:58 AM 12.2 °F -4.3 °F 8.6 °F 85% 29.84 in 10.0 mi WSW 16.1 mph 23.0 mph N/A   Clear
1:19 AM 14.0 °F -0.2 °F 8.6 °F 79% 29.84 in 10.0 mi WSW 12.7 mph 20.7 mph N/A   Clear
1:37 AM 12.2 °F -3.1 °F 8.6 °F 85% 29.84 in 10.0 mi WSW 13.8 mph 19.6 mph N/A   Clear
2:19 AM 14.0 °F -2.5 °F 8.6 °F 79% 29.83 in 10.0 mi WSW 17.3 mph 24.2 mph N/A   Clear
2:38 AM 12.2 °F -3.7 °F 8.6 °F 85% 29.83 in 10.0 mi WSW 15.0 mph 23.0 mph N/A   Clear
2:57 AM 12.2 °F -3.7 °F 8.6 °F 85% 29.83 in 10.0 mi WSW 15.0 mph - N/A   Clear
3:19 AM 12.2 °F -4.3 °F 10.4 °F 92% 29.82 in 10.0 mi SW 16.1 mph - N/A   Clear
3:38 AM 12.2 °F -3.1 °F 8.6 °F 85% 29.83 in 10.0 mi WSW 13.8 mph - N/A   Clear
3:59 AM 12.2 °F -3.1 °F 8.6 °F 85% 29.82 in 10.0 mi WSW 13.8 mph - N/A   Clear
4:36 AM 12.2 °F -3.1 °F 8.6 °F 85% 29.83 in 10.0 mi SW 13.8 mph - N/A   Clear
4:49 AM 12.2 °F -2.5 °F 10.4 °F 92% 29.83 in 10.0 mi WSW 12.7 mph - N/A   Clear
5:19 AM 10.4 °F -6.6 °F 10.4 °F 100% 29.83 in 10.0 mi SW 16.1 mph - N/A   Clear
5:32 AM 10.4 °F -4.8 °F 10.4 °F 100% 29.83 in 10.0 mi SW 12.7 mph - N/A   Clear
5:58 AM 10.4 °F -6.6 °F 10.4 °F 100% 29.83 in 10.0 mi SW 16.1 mph - N/A   Clear
6:15 AM 10.4 °F -5.4 °F 10.4 °F 100% 29.84 in 10.0 mi SW 13.8 mph - N/A   Clear
6:34 AM 12.2 °F -3.1 °F 10.4 °F 92% 29.84 in 10.0 mi SW 13.8 mph - N/A   Clear
6:49 AM 12.2 °F -3.1 °F 10.4 °F 92% 29.85 in 10.0 mi SW 13.8 mph - N/A   Clear
7:18 AM 14.0 °F -1.4 °F 10.4 °F 86% 29.85 in 10.0 mi SW 15.0 mph - N/A   Clear
7:34 AM 14.0 °F -1.4 °F 10.4 °F 86% 29.85 in 10.0 mi SW 15.0 mph - N/A   Clear
7:59 AM 15.8 °F 1.4 °F 12.2 °F 86% 29.85 in 10.0 mi SW 13.8 mph 20.7 mph N/A   Clear
8:19 AM 15.8 °F -0.6 °F 12.2 °F 86% 29.86 in 10.0 mi SW 18.4 mph - N/A   Scattered Clouds
8:34 AM 17.6 °F 5.7 °F 12.2 °F 79% 29.86 in 10.0 mi SW 10.4 mph 21.9 mph N/A   Clear
8:59 AM 17.6 °F 5.7 °F 14.0 °F 86% 29.87 in 10.0 mi SW 10.4 mph - N/A   Scattered Clouds
9:19 AM 19.4 °F 7.9 °F 14.0 °F 80% 29.88 in 10.0 mi SW 10.4 mph - N/A   Mostly Cloudy
9:39 AM 17.6 °F 3.2 °F 14.0 °F 86% 29.88 in 5.0 mi SSW 15.0 mph - N/A   Overcast
9:52 AM 19.4 °F 5.5 °F 15.8 °F 86% 29.87 in 7.0 mi SW 15.0 mph - N/A   Overcast
10:19 AM 21.2 °F 5.6 °F 15.8 °F 80% 29.88 in 10.0 mi SW 20.7 mph 25.3 mph N/A   Overcast
10:40 AM 17.6 °F 0.9 °F 14.0 °F 86% 29.89 in 1.8 mi SW 20.7 mph 28.8 mph N/A Snow Light Snow
10:58 AM 19.4 °F 7.2 °F 14.0 °F 80% 29.89 in 2.0 mi SW 11.5 mph - N/A Snow Light Snow
11:19 AM 17.6 °F 4.3 °F 14.0 °F 86% 29.89 in 0.5 mi SW 12.7 mph 24.2 mph 0.01 in Snow Light Snow
11:39 AM 19.4 °F 6.6 °F 17.6 °F 93% 29.89 in 3.0 mi West 12.7 mph 18.4 mph 0.01 in Snow Light Snow
11:55 AM 21.2 °F 5.6 °F 12.2 °F 68% 29.89 in 10.0 mi WSW 20.7 mph 27.6 mph 0.01 in   Overcast
12:13 PM 23.0 °F 6.6 °F 6.8 °F 50% 29.89 in 7.0 mi West 25.3 mph 35.7 mph N/A   Scattered Clouds
12:39 PM 23.0 °F 7.6 °F 8.6 °F 54% 29.89 in 10.0 mi WSW 21.9 mph 32.2 mph N/A   Mostly Cloudy
12:57 PM 23.0 °F 8.7 °F 10.4 °F 59% 29.89 in 10.0 mi WSW 18.4 mph 24.2 mph N/A   Overcast
1:17 PM 21.2 °F 6.4 °F 5.0 °F 50% 29.88 in 10.0 mi WSW 18.4 mph 28.8 mph N/A   Overcast
1:50 PM 24.8 °F 10.3 °F 6.8 °F 46% 29.87 in 7.0 mi SW 20.7 mph 35.7 mph N/A   Mostly Cloudy
2:17 PM 21.2 °F 6.0 °F 12.2 °F 68% 29.89 in 5.0 mi WSW 19.6 mph 25.3 mph N/A   Haze
2:33 PM 23.0 °F 10.6 °F 14.0 °F 68% 29.89 in 2.5 mi WSW 13.8 mph 27.6 mph N/A Snow Light Snow
3:17 PM 21.2 °F 12.6 °F 8.6 °F 58% 29.90 in 10.0 mi West 6.9 mph 17.3 mph N/A   Overcast
3:39 PM 19.4 °F 6.6 °F 8.6 °F 63% 29.91 in 7.0 mi North 12.7 mph 19.6 mph N/A   Overcast
3:57 PM 23.0 °F 10.6 °F 3.2 °F 43% 29.91 in 10.0 mi West 13.8 mph 28.8 mph N/A   Mostly Cloudy
4:10 PM 19.4 °F 6.6 °F 10.4 °F 68% 29.93 in 2.5 mi North 12.7 mph 23.0 mph N/A   Haze
4:40 PM 19.4 °F 6.6 °F 10.4 °F 68% 29.94 in 10.0 mi NW 12.7 mph 20.7 mph N/A   Scattered Clouds
4:54 PM 21.2 °F 10.9 °F 6.8 °F 54% 29.94 in 10.0 mi NW 9.2 mph 17.3 mph N/A   Scattered Clouds
5:20 PM 19.4 °F 6.6 °F 8.6 °F 63% 29.96 in 4.0 mi NNE 12.7 mph 20.7 mph N/A Snow Light Snow
5:40 PM 15.8 °F 2.1 °F 8.6 °F 73% 29.97 in 7.0 mi NW 12.7 mph 21.9 mph N/A   Mostly Cloudy
5:57 PM 17.6 °F 9.3 °F 6.8 °F 63% 29.98 in 10.0 mi NNW 5.8 mph 16.1 mph N/A   Scattered Clouds
6:20 PM 17.6 °F 5.7 °F 6.8 °F 63% 29.99 in 10.0 mi NNW 10.4 mph - N/A   Scattered Clouds
6:39 PM 14.0 °F 5.1 °F 8.6 °F 79% 29.99 in 2.0 mi NNW 5.8 mph - N/A Snow Light Snow
6:56 PM 14.0 °F 6.5 °F 8.6 °F 79% 29.99 in 7.0 mi West 4.6 mph - N/A Snow Light Snow
7:18 PM 12.2 °F 1.7 °F 8.6 °F 85% 30.00 in 10.0 mi NW 6.9 mph - N/A   Mostly Cloudy
7:39 PM 12.2 °F 1.7 °F 8.6 °F 85% 30.00 in 7.0 mi NW 6.9 mph 19.6 mph N/A Snow Light Snow
7:58 PM 12.2 °F 1.7 °F 8.6 °F 85% 30.01 in 5.0 mi North 6.9 mph - N/A Snow Light Snow
8:20 PM 12.2 °F 0.7 °F 10.4 °F 92% 30.01 in 1.5 mi NNW 8.1 mph 16.1 mph N/A Snow Light Snow
8:38 PM 10.4 °F -3.3 °F 10.4 °F 100% 30.03 in 4.0 mi North 10.4 mph 17.3 mph N/A Snow Light Snow
8:58 PM 10.4 °F -1.5 °F 10.4 °F 100% 30.04 in 2.5 mi NNE 8.1 mph 16.1 mph N/A Snow Light Snow
9:20 PM 10.4 °F -2.4 °F 6.8 °F 85% 30.05 in 10.0 mi NNE 9.2 mph 16.1 mph N/A   Mostly Cloudy
9:29 PM 10.4 °F -6.6 °F 8.6 °F 92% 30.04 in 5.0 mi NE 16.1 mph 25.3 mph N/A Snow Light Snow
9:55 PM 10.4 °F -9.5 °F 8.6 °F 92% 30.05 in 1.8 mi NNE 23.0 mph 31.1 mph N/A Snow Light Snow
10:19 PM 10.4 °F -8.2 °F 5.0 °F 79% 30.06 in 3.0 mi NNE 19.6 mph 34.5 mph N/A Snow Light Snow
10:37 PM 10.4 °F -7.2 °F 5.0 °F 79% 30.07 in 10.0 mi NE 17.3 mph 21.9 mph N/A   Mostly Cloudy
10:52 PM 10.4 °F -5.4 °F 5.0 °F 79% 30.07 in 7.0 mi NNE 13.8 mph 23.0 mph N/A   Mostly Cloudy
11:20 PM 10.4 °F -4.8 °F 5.0 °F 79% 30.06 in 4.0 mi NNE 12.7 mph 23.0 mph N/A Snow Light Snow
11:39 PM 8.6 °F -12.3 °F 5.0 °F 85% 30.06 in 3.0 mi NNE 24.2 mph 29.9 mph N/A Snow Light Snow
11:59 PM 8.6 °F -7.7 °F 5.0 °F 85% 30.06 in 2.0 mi NNE 13.8 mph 28.8 mph N/A Snow Light Snow